Time;durP1;ratioP1;P1;durP2;ratioP2;P2;SDS_P1;SDS_P2;PMS_P1;PMS_P2;Temp;Humidity;BMP_temperature;BMP_pressure;BME280_temperature;BME280_humidity;BME280_pressure;Samples;Min_cycle;Max_cycle;Signal;HPM_P1;HPM_P2
2021/12/20 00:00:14;;;;;;;3.25;2.70;;;;;;;;;;5052418;28;20223;-76
2021/12/20 00:02:41;;;;;;;2.95;1.95;;;;;;;;;;5053666;28;20202;-77
2021/12/20 00:05:09;;;;;;;3.95;1.77;;;;;;;;;;5051899;28;20195;-78
2021/12/20 00:07:36;;;;;;;3.05;2.10;;;;;;;;;;5057944;28;20229;-79
2021/12/20 00:10:05;;;;;;;2.28;1.70;;;;;;;;;;5054681;28;20207;-79
2021/12/20 00:12:32;;;;;;;4.55;1.60;;;;;;;;;;5059533;28;20209;-79
2021/12/20 00:14:59;;;;;;;3.78;1.75;;;;;;;;;;5053269;28;20509;-78
2021/12/20 00:17:26;;;;;;;5.05;1.83;;;;;;;;;;5045032;28;20210;-78
2021/12/20 00:19:53;;;;;;;3.72;2.08;;;;;;;;;;5055442;28;20218;-79
2021/12/20 00:22:20;;;;;;;2.95;1.95;;;;;;;;;;5067923;28;20198;-80
2021/12/20 00:24:47;;;;;;;5.68;2.53;;;;;;;;;;5055890;28;20689;-79
2021/12/20 00:27:19;;;;;;;6.57;2.65;;;;;;;;;;5049453;28;20226;-78
2021/12/20 00:29:46;;;;;;;2.90;2.03;;;;;;;;;;5049253;28;20198;-78
2021/12/20 00:32:13;;;;;;;4.47;1.95;;;;;;;;;;5049473;28;20663;-78
2021/12/20 00:34:41;;;;;;;3.05;1.35;;;;;;;;;;5045241;28;20654;-79
2021/12/20 00:40:20;;;;;;;7.13;2.47;;;;;;;;;;5059737;28;20191;-78
2021/12/20 00:42:42;;;;;;;4.53;2.08;;;;;;;;;;5057120;28;20253;-77
2021/12/20 00:45:10;;;;;;;6.72;2.05;;;;;;;;;;5051368;28;20595;-77
2021/12/20 00:47:37;;;;;;;4.15;2.00;;;;;;;;;;5053436;28;20218;-78
2021/12/20 00:50:05;;;;;;;6.25;2.60;;;;;;;;;;5047902;28;20198;-77
2021/12/20 00:52:32;;;;;;;5.60;2.20;;;;;;;;;;5065272;28;20197;-77
2021/12/20 00:54:59;;;;;;;6.28;1.85;;;;;;;;;;5055427;28;20638;-77
2021/12/20 00:57:26;;;;;;;3.55;1.60;;;;;;;;;;5050898;28;20198;-77
2021/12/20 00:59:54;;;;;;;4.07;1.90;;;;;;;;;;5051985;28;20233;-78
2021/12/20 01:02:22;;;;;;;8.43;2.33;;;;;;;;;;5064954;28;20206;-78
2021/12/20 01:04:49;;;;;;;7.15;3.10;;;;;;;;;;5045067;28;20198;-77
2021/12/20 01:07:16;;;;;;;8.95;2.40;;;;;;;;;;5052183;28;20221;-77
2021/12/20 01:09:43;;;;;;;8.77;1.90;;;;;;;;;;5041814;28;20210;-77
2021/12/20 01:12:16;;;;;;;11.65;2.67;;;;;;;;;;5052778;28;20209;-77
2021/12/20 01:14:44;;;;;;;9.70;2.47;;;;;;;;;;5057416;28;20286;-77
2021/12/20 01:17:12;;;;;;;6.47;2.10;;;;;;;;;;5045665;28;20202;-78
2021/12/20 01:19:40;;;;;;;4.95;2.30;;;;;;;;;;5057177;28;20686;-77
2021/12/20 01:22:07;;;;;;;5.85;1.85;;;;;;;;;;5060814;28;20650;-78
2021/12/20 01:24:35;;;;;;;6.38;1.75;;;;;;;;;;5052413;28;20194;-77
2021/12/20 01:27:02;;;;;;;4.80;2.03;;;;;;;;;;5068106;28;20222;-77
2021/12/20 01:29:29;;;;;;;3.65;1.90;;;;;;;;;;5051030;28;20210;-78
2021/12/20 01:31:56;;;;;;;8.50;2.45;;;;;;;;;;5054808;28;20660;-78
2021/12/20 01:34:24;;;;;;;9.68;2.05;;;;;;;;;;5051078;28;20225;-78
2021/12/20 01:36:51;;;;;;;9.77;2.47;;;;;;;;;;5051467;28;20223;-78
2021/12/20 01:39:19;;;;;;;4.40;1.90;;;;;;;;;;5057114;28;20199;-78
2021/12/20 01:41:46;;;;;;;2.60;2.17;;;;;;;;;;5067272;28;20723;-78
2021/12/20 01:44:14;;;;;;;4.68;1.90;;;;;;;;;;5061117;28;20740;-78
2021/12/20 01:46:41;;;;;;;4.20;1.67;;;;;;;;;;5052888;28;20232;-77
2021/12/20 01:49:11;;;;;;;5.10;2.33;;;;;;;;;;5055699;28;20209;-78
2021/12/20 01:52:00;;;;;;;7.05;1.70;;;;;;;;;;5059799;28;20263;-77
2021/12/20 01:54:27;;;;;;;5.45;1.85;;;;;;;;;;5065857;28;20263;-77
2021/12/20 01:56:55;;;;;;;3.85;2.10;;;;;;;;;;5052828;28;20642;-78
2021/12/20 01:59:22;;;;;;;5.03;1.42;;;;;;;;;;5051008;28;20258;-78
2021/12/20 02:01:49;;;;;;;12.63;2.25;;;;;;;;;;5051252;28;20199;-77
2021/12/20 02:04:16;;;;;;;6.88;2.75;;;;;;;;;;5059354;28;20203;-78
2021/12/20 02:06:47;;;;;;;9.75;2.13;;;;;;;;;;5049452;28;20666;-78
2021/12/20 02:09:15;;;;;;;5.53;1.95;;;;;;;;;;5049532;28;20198;-78
2021/12/20 02:11:43;;;;;;;8.43;1.60;;;;;;;;;;5051459;28;20207;-78
2021/12/20 02:14:11;;;;;;;3.55;1.90;;;;;;;;;;5050380;28;20685;-78
2021/12/20 02:16:40;;;;;;;3.45;2.10;;;;;;;;;;5046927;28;20203;-78
2021/12/20 02:19:09;;;;;;;6.38;2.20;;;;;;;;;;5062379;28;20747;-78
2021/12/20 02:21:37;;;;;;;5.90;1.73;;;;;;;;;;5052825;28;20203;-78
2021/12/20 02:24:05;;;;;;;3.60;2.05;;;;;;;;;;5068573;28;20213;-78
2021/12/20 02:26:32;;;;;;;11.55;2.33;;;;;;;;;;5053002;28;20194;-78
2021/12/20 02:29:06;;;;;;;7.40;2.53;;;;;;;;;;5051428;28;20206;-78
2021/12/20 02:37:19;;;;;;;4.90;2.60;;;;;;;;;;5036562;28;20217;-78
2021/12/20 02:39:47;;;;;;;7.13;3.05;;;;;;;;;;5056359;28;20569;-77
2021/12/20 02:42:18;;;;;;;4.60;1.35;;;;;;;;;;5054348;28;20214;-78
2021/12/20 02:44:52;;;;;;;5.88;1.80;;;;;;;;;;5050477;28;20256;-77
2021/12/20 02:47:28;;;;;;;4.43;2.70;;;;;;;;;;5052033;28;20256;-77
2021/12/20 02:49:55;;;;;;;7.38;1.60;;;;;;;;;;5039732;28;20286;-77
2021/12/20 02:52:24;;;;;;;10.18;2.78;;;;;;;;;;5050488;28;20671;-77
2021/12/20 02:54:52;;;;;;;8.52;2.33;;;;;;;;;;5055750;28;20209;-78
2021/12/20 02:57:19;;;;;;;3.70;2.25;;;;;;;;;;5055233;28;20290;-77
2021/12/20 02:59:46;;;;;;;3.75;1.50;;;;;;;;;;5051034;28;20712;-76
2021/12/20 03:02:14;;;;;;;9.50;2.47;;;;;;;;;;5048930;28;20209;-76
2021/12/20 03:04:41;;;;;;;8.07;2.15;;;;;;;;;;5052908;28;20656;-77
2021/12/20 03:07:09;;;;;;;4.15;2.25;;;;;;;;;;5051150;28;20215;-76
2021/12/20 03:09:41;;;;;;;9.48;2.35;;;;;;;;;;5050647;28;20260;-77
2021/12/20 03:12:09;;;;;;;4.68;2.47;;;;;;;;;;5057740;28;20682;-77
2021/12/20 03:14:39;;;;;;;3.08;1.83;;;;;;;;;;5054265;28;20194;-76
2021/12/20 03:17:07;;;;;;;6.80;2.20;;;;;;;;;;5060609;28;20201;-76
2021/12/20 03:19:34;;;;;;;6.25;2.60;;;;;;;;;;5054548;28;20638;-76
2021/12/20 03:22:02;;;;;;;5.65;2.10;;;;;;;;;;5055784;28;20202;-76
2021/12/20 03:24:29;;;;;;;4.57;1.83;;;;;;;;;;5052360;28;20191;-75
2021/12/20 03:26:58;;;;;;;6.35;2.45;;;;;;;;;;5050855;28;20241;-75
2021/12/20 03:29:25;;;;;;;11.23;2.83;;;;;;;;;;5058839;28;20240;-75
2021/12/20 03:31:52;;;;;;;8.68;1.98;;;;;;;;;;5049667;28;20195;-76
2021/12/20 03:34:20;;;;;;;8.63;2.35;;;;;;;;;;5044695;28;20191;-76
2021/12/20 03:36:47;;;;;;;6.85;2.05;;;;;;;;;;5054262;28;20206;-76
2021/12/20 03:39:14;;;;;;;7.40;2.50;;;;;;;;;;5052327;28;20199;-76
2021/12/20 03:41:42;;;;;;;5.50;2.10;;;;;;;;;;5053408;28;20205;-76
2021/12/20 03:44:11;;;;;;;2.33;1.80;;;;;;;;;;5047959;28;20225;-75
2021/12/20 03:46:38;;;;;;;6.93;1.95;;;;;;;;;;5065188;28;20213;-75
2021/12/20 03:49:06;;;;;;;6.68;2.67;;;;;;;;;;5045263;28;20199;-75
2021/12/20 03:51:33;;;;;;;10.98;2.60;;;;;;;;;;5057789;28;20281;-76
2021/12/20 03:54:00;;;;;;;6.90;2.15;;;;;;;;;;5059672;28;20198;-75
2021/12/20 03:56:27;;;;;;;5.10;2.28;;;;;;;;;;5062879;28;20581;-75
2021/12/20 03:58:54;;;;;;;5.40;2.10;;;;;;;;;;5051274;28;20664;-75
2021/12/20 04:01:24;;;;;;;3.53;1.95;;;;;;;;;;5052020;28;20678;-75
2021/12/20 04:03:51;;;;;;;6.35;1.95;;;;;;;;;;5034646;28;20566;-75
2021/12/20 04:06:18;;;;;;;9.40;2.35;;;;;;;;;;5048046;28;20646;-75
2021/12/20 04:08:48;;;;;;;7.70;3.47;;;;;;;;;;5041211;28;20230;-75
2021/12/20 04:11:15;;;;;;;4.53;1.92;;;;;;;;;;5051681;28;20191;-75
2021/12/20 04:13:42;;;;;;;13.35;2.28;;;;;;;;;;5056312;28;20226;-75
2021/12/20 04:16:09;;;;;;;6.82;2.38;;;;;;;;;;5065520;28;20206;-76
2021/12/20 04:18:38;;;;;;;4.85;2.25;;;;;;;;;;5038899;28;20199;-76
2021/12/20 04:21:05;;;;;;;5.95;2.70;;;;;;;;;;5043049;28;20195;-76
2021/12/20 04:23:32;;;;;;;7.60;2.40;;;;;;;;;;5052711;28;20662;-76
2021/12/20 04:25:59;;;;;;;10.60;3.22;;;;;;;;;;5047883;28;20763;-75
2021/12/20 04:28:26;;;;;;;6.03;2.05;;;;;;;;;;5044559;28;20700;-76
2021/12/20 04:30:53;;;;;;;4.60;1.88;;;;;;;;;;5051688;28;20210;-76
2021/12/20 04:33:20;;;;;;;5.47;1.88;;;;;;;;;;5045603;28;20202;-76
2021/12/20 04:35:49;;;;;;;7.68;2.20;;;;;;;;;;5043728;28;20195;-75
2021/12/20 04:38:17;;;;;;;7.38;2.50;;;;;;;;;;5049730;28;20195;-76
2021/12/20 04:40:44;;;;;;;7.03;2.05;;;;;;;;;;5057429;28;20198;-77
2021/12/20 04:43:12;;;;;;;11.32;2.15;;;;;;;;;;5064298;28;20202;-76
2021/12/20 04:45:39;;;;;;;5.25;1.95;;;;;;;;;;5056935;28;20210;-75
2021/12/20 04:48:07;;;;;;;9.73;2.85;;;;;;;;;;5036438;28;20230;-76
2021/12/20 04:50:34;;;;;;;9.50;3.28;;;;;;;;;;5052378;28;20187;-76
2021/12/20 04:53:02;;;;;;;6.93;2.13;;;;;;;;;;5061417;28;20223;-76
2021/12/20 04:55:30;;;;;;;6.50;2.83;;;;;;;;;;5048010;28;20206;-76
2021/12/20 04:57:58;;;;;;;6.65;2.17;;;;;;;;;;5050177;28;20203;-75
2021/12/20 05:00:26;;;;;;;7.78;2.58;;;;;;;;;;5048932;28;20222;-75
2021/12/20 05:02:54;;;;;;;5.93;2.42;;;;;;;;;;5049509;28;20654;-76
2021/12/20 05:05:22;;;;;;;6.90;1.67;;;;;;;;;;5057926;28;20597;-76
2021/12/20 05:07:49;;;;;;;8.90;2.10;;;;;;;;;;5055075;28;20216;-76
2021/12/20 05:10:26;;;;;;;6.55;2.83;;;;;;;;;;5053588;28;20195;-77
2021/12/20 05:12:53;;;;;;;7.28;2.47;;;;;;;;;;5052520;28;20245;-79
2021/12/20 05:15:21;;;;;;;5.40;2.30;;;;;;;;;;5051940;28;20199;-78
2021/12/20 05:17:48;;;;;;;8.50;2.40;;;;;;;;;;5056073;28;20195;-78
2021/12/20 05:20:15;;;;;;;6.75;2.17;;;;;;;;;;5048947;28;20218;-78
2021/12/20 05:22:42;;;;;;;6.35;2.00;;;;;;;;;;5057935;28;20677;-79
2021/12/20 05:25:10;;;;;;;6.10;1.95;;;;;;;;;;5049273;28;20195;-75
2021/12/20 05:27:38;;;;;;;4.03;1.92;;;;;;;;;;5051643;28;20210;-79
2021/12/20 05:30:06;;;;;;;11.73;2.13;;;;;;;;;;5058920;28;20194;-78
2021/12/20 05:32:33;;;;;;;12.38;3.15;;;;;;;;;;5048807;28;20202;-79
2021/12/20 05:35:00;;;;;;;6.72;2.25;;;;;;;;;;5045891;28;20812;-78
2021/12/20 05:37:28;;;;;;;11.43;3.28;;;;;;;;;;5048207;28;20277;-78
2021/12/20 05:39:55;;;;;;;3.03;2.22;;;;;;;;;;5055759;28;20642;-78
2021/12/20 05:42:22;;;;;;;5.68;2.35;;;;;;;;;;5053393;28;20557;-78
2021/12/20 05:44:51;;;;;;;10.30;3.50;;;;;;;;;;5057120;28;20657;-77
2021/12/20 05:47:18;;;;;;;10.25;3.25;;;;;;;;;;5052088;28;20669;-78
2021/12/20 05:49:45;;;;;;;8.93;3.10;;;;;;;;;;5048714;28;20308;-78
2021/12/20 05:52:13;;;;;;;6.70;2.30;;;;;;;;;;5049164;28;20685;-78
2021/12/20 05:54:40;;;;;;;6.85;2.55;;;;;;;;;;5052560;28;20562;-78
2021/12/20 05:57:07;;;;;;;5.60;2.65;;;;;;;;;;5052233;28;20197;-76
2021/12/20 05:59:34;;;;;;;7.60;2.92;;;;;;;;;;5051036;28;20210;-77
2021/12/20 06:02:03;;;;;;;6.05;2.03;;;;;;;;;;5047899;28;20195;-77
2021/12/20 06:04:30;;;;;;;10.68;2.30;;;;;;;;;;5055854;28;20191;-76
2021/12/20 06:06:57;;;;;;;7.88;2.38;;;;;;;;;;5049758;28;20207;-77
2021/12/20 06:09:25;;;;;;;8.88;2.97;;;;;;;;;;5043483;28;20697;-77
2021/12/20 06:11:54;;;;;;;4.75;2.40;;;;;;;;;;5051510;28;20393;-77
2021/12/20 06:14:21;;;;;;;8.32;2.08;;;;;;;;;;5051819;28;20256;-77
2021/12/20 06:16:48;;;;;;;8.20;2.05;;;;;;;;;;5059619;28;20397;-77
2021/12/20 06:19:16;;;;;;;7.97;2.13;;;;;;;;;;5053540;28;20203;-77
2021/12/20 06:21:43;;;;;;;6.50;2.70;;;;;;;;;;5049801;28;20199;-76
2021/12/20 06:24:10;;;;;;;8.75;2.47;;;;;;;;;;5057326;28;20205;-76
2021/12/20 06:26:37;;;;;;;4.32;2.30;;;;;;;;;;5051532;28;20717;-76
2021/12/20 06:29:04;;;;;;;4.43;2.15;;;;;;;;;;5051080;28;20219;-77
2021/12/20 06:31:31;;;;;;;5.93;2.38;;;;;;;;;;5050621;28;20569;-76
2021/12/20 06:33:58;;;;;;;10.25;2.78;;;;;;;;;;5052531;28;20201;-77
2021/12/20 06:36:30;;;;;;;5.82;2.50;;;;;;;;;;5055323;28;20673;-76
2021/12/20 06:38:58;;;;;;;6.53;2.33;;;;;;;;;;5050734;28;20713;-77
2021/12/20 06:41:25;;;;;;;2.95;2.10;;;;;;;;;;5049049;28;20608;-77
2021/12/20 06:43:52;;;;;;;8.80;2.90;;;;;;;;;;5063779;28;20209;-77
2021/12/20 06:46:20;;;;;;;8.77;3.20;;;;;;;;;;5063673;28;20572;-76
2021/12/20 06:48:47;;;;;;;5.35;2.53;;;;;;;;;;5045951;28;20555;-77
2021/12/20 06:51:15;;;;;;;4.43;2.22;;;;;;;;;;5049357;28;20206;-76
2021/12/20 06:53:43;;;;;;;5.88;2.65;;;;;;;;;;5053555;28;20209;-76
2021/12/20 06:56:12;;;;;;;6.75;2.60;;;;;;;;;;5048912;28;20202;-76
2021/12/20 06:58:40;;;;;;;6.75;2.97;;;;;;;;;;5046432;28;21669;-78
2021/12/20 07:01:07;;;;;;;9.00;3.50;;;;;;;;;;5037554;28;20222;-76
2021/12/20 07:03:34;;;;;;;4.90;2.42;;;;;;;;;;5051080;28;20205;-77
2021/12/20 07:06:01;;;;;;;5.57;4.25;;;;;;;;;;5047146;28;20219;-77
2021/12/20 07:08:28;;;;;;;14.13;3.08;;;;;;;;;;5040977;28;20222;-80
2021/12/20 07:10:57;;;;;;;5.72;2.88;;;;;;;;;;5045227;28;20205;-78
2021/12/20 07:13:24;;;;;;;4.97;2.35;;;;;;;;;;5048683;28;20269;-78
2021/12/20 07:15:51;;;;;;;8.45;3.50;;;;;;;;;;5045972;28;20202;-78
2021/12/20 07:18:18;;;;;;;6.30;2.72;;;;;;;;;;5044421;28;20678;-78
2021/12/20 07:20:45;;;;;;;6.40;3.08;;;;;;;;;;5046086;28;20202;-77
2021/12/20 07:23:12;;;;;;;5.15;2.45;;;;;;;;;;5042968;28;20209;-77
2021/12/20 07:25:39;;;;;;;7.82;2.42;;;;;;;;;;5050491;28;20199;-77
2021/12/20 07:28:08;;;;;;;12.70;3.08;;;;;;;;;;5046639;28;20249;-78
2021/12/20 07:30:35;;;;;;;8.07;2.75;;;;;;;;;;5045706;28;20206;-77
2021/12/20 07:33:05;;;;;;;7.90;3.20;;;;;;;;;;5037181;28;20211;-78
2021/12/20 07:35:32;;;;;;;9.63;3.15;;;;;;;;;;5050447;28;20301;-78
2021/12/20 07:38:00;;;;;;;10.65;5.47;;;;;;;;;;5052909;28;20221;-78
2021/12/20 07:40:28;;;;;;;5.68;3.00;;;;;;;;;;5055149;28;20194;-77
2021/12/20 07:42:55;;;;;;;9.32;3.00;;;;;;;;;;5053904;28;20665;-77
2021/12/20 07:45:23;;;;;;;7.90;2.95;;;;;;;;;;5044406;28;20206;-77
2021/12/20 07:47:51;;;;;;;5.45;2.85;;;;;;;;;;5049293;28;20275;-78
2021/12/20 07:50:18;;;;;;;9.63;2.95;;;;;;;;;;5054979;28;20601;-77
2021/12/20 07:52:46;;;;;;;10.23;3.88;;;;;;;;;;5060632;28;20202;-77
2021/12/20 07:55:13;;;;;;;8.05;3.35;;;;;;;;;;5054473;28;20210;-77
2021/12/20 07:57:41;;;;;;;5.60;3.13;;;;;;;;;;5052195;28;20249;-78
2021/12/20 08:00:09;;;;;;;7.15;3.63;;;;;;;;;;5060996;28;20217;-78
2021/12/20 08:02:38;;;;;;;12.38;3.72;;;;;;;;;;5046727;28;20202;-77
2021/12/20 08:05:06;;;;;;;9.10;3.40;;;;;;;;;;5057575;28;20200;-77
2021/12/20 08:07:33;;;;;;;7.28;3.47;;;;;;;;;;5051084;28;20578;-78
2021/12/20 08:10:00;;;;;;;8.20;3.13;;;;;;;;;;5051002;28;20227;-77
2021/12/20 08:12:27;;;;;;;5.68;4.00;;;;;;;;;;5063579;28;20662;-77
2021/12/20 08:14:54;;;;;;;10.13;3.45;;;;;;;;;;5054043;28;20214;-77
2021/12/20 08:17:21;;;;;;;10.43;3.65;;;;;;;;;;5057450;28;20200;-76
2021/12/20 08:19:49;;;;;;;9.38;3.25;;;;;;;;;;5056750;28;20202;-76
2021/12/20 08:22:16;;;;;;;5.30;2.90;;;;;;;;;;5056630;28;20562;-77
2021/12/20 08:24:43;;;;;;;11.45;3.05;;;;;;;;;;5039992;28;20575;-76
2021/12/20 08:27:10;;;;;;;9.88;3.72;;;;;;;;;;5054006;28;20650;-76
2021/12/20 08:29:37;;;;;;;6.22;4.00;;;;;;;;;;5053507;28;20233;-77
2021/12/20 08:32:05;;;;;;;11.05;4.38;;;;;;;;;;5058125;28;20202;-77
2021/12/20 08:34:32;;;;;;;8.77;3.25;;;;;;;;;;5068551;28;20198;-77
2021/12/20 08:37:01;;;;;;;8.50;3.85;;;;;;;;;;5060649;28;20207;-76
2021/12/20 08:39:28;;;;;;;10.55;3.55;;;;;;;;;;5064593;28;20187;-77
2021/12/20 08:41:56;;;;;;;11.57;3.97;;;;;;;;;;5053671;28;20202;-77
2021/12/20 08:44:23;;;;;;;9.98;5.07;;;;;;;;;;5053775;28;20198;-77
2021/12/20 08:46:50;;;;;;;7.97;3.95;;;;;;;;;;5055555;28;20202;-77
2021/12/20 08:49:17;;;;;;;7.60;3.33;;;;;;;;;;5053033;28;20218;-77
2021/12/20 08:51:45;;;;;;;5.57;2.97;;;;;;;;;;5048426;28;20633;-77
2021/12/20 08:54:13;;;;;;;8.80;4.03;;;;;;;;;;5051614;28;20199;-78
2021/12/20 08:56:41;;;;;;;10.40;4.22;;;;;;;;;;5059796;28;20209;-78
2021/12/20 08:59:08;;;;;;;8.52;4.15;;;;;;;;;;5055108;28;20190;-78
2021/12/20 09:01:36;;;;;;;9.50;3.53;;;;;;;;;;5054322;28;20201;-77
2021/12/20 09:04:03;;;;;;;10.52;4.40;;;;;;;;;;5061716;28;20547;-77
2021/12/20 09:06:31;;;;;;;7.82;3.65;;;;;;;;;;5048813;28;20655;-77
2021/12/20 09:08:59;;;;;;;9.05;3.60;;;;;;;;;;5041459;28;20709;-77
2021/12/20 09:11:27;;;;;;;7.63;3.15;;;;;;;;;;5047417;28;20795;-77
2021/12/20 09:13:54;;;;;;;21.70;4.53;;;;;;;;;;5057137;28;20198;-77
2021/12/20 09:16:22;;;;;;;12.45;4.75;;;;;;;;;;5061324;28;20195;-77
2021/12/20 09:18:49;;;;;;;7.93;3.50;;;;;;;;;;5050779;28;20211;-77
2021/12/20 09:21:16;;;;;;;7.43;3.65;;;;;;;;;;5049365;28;20197;-81
2021/12/20 09:23:44;;;;;;;13.25;3.97;;;;;;;;;;5058811;28;20194;-82
2021/12/20 09:26:11;;;;;;;8.10;3.47;;;;;;;;;;5059163;28;20198;-76
2021/12/20 09:28:39;;;;;;;12.70;4.20;;;;;;;;;;5050791;28;20217;-76
2021/12/20 09:31:07;;;;;;;5.60;3.08;;;;;;;;;;5056897;28;20195;-76
2021/12/20 09:33:34;;;;;;;15.45;4.47;;;;;;;;;;5051433;28;20199;-76
2021/12/20 09:36:01;;;;;;;10.10;5.65;;;;;;;;;;5053163;28;20642;-76
2021/12/20 09:38:31;;;;;;;11.90;5.00;;;;;;;;;;5066454;28;20697;-76
2021/12/20 09:41:14;;;;;;;6.50;3.90;;;;;;;;;;5051242;28;20198;-76
2021/12/20 09:43:44;;;;;;;8.65;3.92;;;;;;;;;;5067576;28;20677;-76
2021/12/20 09:46:11;;;;;;;11.18;4.65;;;;;;;;;;5047857;28;20191;-76
2021/12/20 09:48:39;;;;;;;10.60;4.50;;;;;;;;;;5041698;28;20203;-76
2021/12/20 09:51:07;;;;;;;10.77;3.70;;;;;;;;;;5059207;28;20659;-76
2021/12/20 09:53:34;;;;;;;10.38;4.93;;;;;;;;;;5064517;28;20337;-77
2021/12/20 09:56:02;;;;;;;10.18;3.80;;;;;;;;;;5056237;28;20205;-77
2021/12/20 09:58:29;;;;;;;10.75;3.30;;;;;;;;;;5059836;28;20190;-77
2021/12/20 10:00:57;;;;;;;11.00;4.82;;;;;;;;;;5049081;28;20219;-76
2021/12/20 10:03:24;;;;;;;8.82;3.53;;;;;;;;;;5033718;28;20196;-76
2021/12/20 10:05:55;;;;;;;15.73;5.10;;;;;;;;;;5058671;28;20222;-76
2021/12/20 10:08:31;;;;;;;7.53;4.28;;;;;;;;;;5039120;28;20206;-76
2021/12/20 10:10:58;;;;;;;12.15;5.70;;;;;;;;;;5049893;28;20214;-77
2021/12/20 10:13:26;;;;;;;12.73;5.15;;;;;;;;;;5052001;28;20195;-77
2021/12/20 10:15:54;;;;;;;14.25;5.05;;;;;;;;;;5051241;28;20186;-76
2021/12/20 10:18:23;;;;;;;11.23;5.55;;;;;;;;;;5047191;28;20203;-76
2021/12/20 10:20:51;;;;;;;7.53;4.55;;;;;;;;;;5058609;28;20348;-76
2021/12/20 10:23:19;;;;;;;11.60;5.28;;;;;;;;;;5050812;28;20211;-76
2021/12/20 10:25:47;;;;;;;12.52;5.28;;;;;;;;;;5036021;28;20249;-76
2021/12/20 10:28:15;;;;;;;12.48;5.80;;;;;;;;;;5036608;28;20199;-76
2021/12/20 10:30:44;;;;;;;15.52;4.18;;;;;;;;;;5050108;28;20582;-76
2021/12/20 10:33:12;;;;;;;21.08;6.10;;;;;;;;;;5054354;28;20197;-76
2021/12/20 10:35:42;;;;;;;15.32;5.95;;;;;;;;;;5062775;28;20190;-77
2021/12/20 10:38:21;;;;;;;10.93;4.82;;;;;;;;;;5066572;28;20677;-76
2021/12/20 10:40:49;;;;;;;17.25;5.50;;;;;;;;;;5040260;28;20300;-76
2021/12/20 10:43:19;;;;;;;10.30;5.32;;;;;;;;;;5043155;28;20196;-76
2021/12/20 10:45:46;;;;;;;13.80;4.88;;;;;;;;;;5044429;28;20194;-77
2021/12/20 10:48:13;;;;;;;19.33;5.57;;;;;;;;;;5060423;28;20193;-76
2021/12/20 10:50:43;;;;;;;17.52;5.30;;;;;;;;;;5059742;28;20681;-77
2021/12/20 10:53:15;;;;;;;17.60;6.40;;;;;;;;;;5051017;28;20233;-77
2021/12/20 10:55:43;;;;;;;13.57;5.68;;;;;;;;;;5031374;28;20203;-77
2021/12/20 10:58:20;;;;;;;11.18;5.15;;;;;;;;;;5031445;28;20197;-76
2021/12/20 11:00:47;;;;;;;15.38;6.53;;;;;;;;;;5049560;28;20211;-76
2021/12/20 11:03:25;;;;;;;12.98;6.15;;;;;;;;;;5045250;28;20200;-76
2021/12/20 11:06:14;;;;;;;17.55;8.35;;;;;;;;;;5055464;28;20247;-77
2021/12/20 11:11:39;;;;;;;19.38;6.00;;;;;;;;;;5013641;28;20580;-76
2021/12/20 11:14:08;;;;;;;15.80;6.47;;;;;;;;;;5046140;28;20195;-80
2021/12/20 11:16:36;;;;;;;20.42;6.55;;;;;;;;;;5049845;28;20198;-79
2021/12/20 11:19:14;;;;;;;15.90;6.53;;;;;;;;;;5047813;28;20592;-78
2021/12/20 11:21:48;;;;;;;10.93;6.22;;;;;;;;;;5046653;28;20643;-79
2021/12/20 11:24:16;;;;;;;11.90;6.22;;;;;;;;;;5055860;28;20194;-79
2021/12/20 11:26:43;;;;;;;14.70;5.85;;;;;;;;;;5053274;28;20195;-78
2021/12/20 11:29:11;;;;;;;16.83;6.45;;;;;;;;;;5048752;28;20562;-79
2021/12/20 11:31:38;;;;;;;12.23;6.03;;;;;;;;;;5045294;28;20202;-79
2021/12/20 11:34:05;;;;;;;18.90;6.50;;;;;;;;;;5058566;28;20202;-79
2021/12/20 11:36:33;;;;;;;15.05;6.45;;;;;;;;;;5053590;28;20201;-78
2021/12/20 11:39:03;;;;;;;12.82;6.50;;;;;;;;;;5043131;28;20210;-78
2021/12/20 11:41:30;;;;;;;19.10;7.15;;;;;;;;;;5057496;28;20732;-78
2021/12/20 11:43:58;;;;;;;14.23;6.75;;;;;;;;;;5053834;28;20194;-78
2021/12/20 11:46:30;;;;;;;10.70;6.40;;;;;;;;;;5059270;28;20768;-78
2021/12/20 11:48:57;;;;;;;12.55;5.78;;;;;;;;;;5061261;28;20194;-79
2021/12/20 11:51:24;;;;;;;15.40;6.05;;;;;;;;;;5063220;28;20221;-79
2021/12/20 11:53:52;;;;;;;13.95;6.53;;;;;;;;;;5054280;28;20199;-78
2021/12/20 11:56:35;;;;;;;17.45;7.10;;;;;;;;;;5050372;28;20206;-78
2021/12/20 11:59:04;;;;;;;15.70;6.50;;;;;;;;;;5054799;28;20202;-77
2021/12/20 12:01:31;;;;;;;14.05;5.35;;;;;;;;;;5049157;28;20191;-77
2021/12/20 12:03:59;;;;;;;13.82;7.45;;;;;;;;;;5057068;28;20208;-77
2021/12/20 12:06:27;;;;;;;15.07;6.78;;;;;;;;;;5055745;28;20198;-77
2021/12/20 12:08:58;;;;;;;12.32;6.22;;;;;;;;;;5045149;28;20203;-77
2021/12/20 12:11:30;;;;;;;11.40;5.57;;;;;;;;;;5053698;28;21040;-79
2021/12/20 12:14:19;;;;;;;14.52;6.63;;;;;;;;;;5067786;28;20201;-79
2021/12/20 12:16:54;;;;;;;21.55;7.00;;;;;;;;;;5051237;28;20214;-77
2021/12/20 12:19:38;;;;;;;11.98;6.07;;;;;;;;;;5049769;28;20607;-77
2021/12/20 12:22:26;;;;;;;10.48;5.30;;;;;;;;;;5052627;28;20203;-77
2021/12/20 12:24:54;;;;;;;14.43;6.43;;;;;;;;;;5044209;28;20553;-80
2021/12/20 12:27:22;;;;;;;12.20;6.45;;;;;;;;;;5051345;28;20218;-77
2021/12/20 12:33:12;;;;;;;15.85;7.32;;;;;;;;;;5085956;28;20517;-76
2021/12/20 12:35:51;;;;;;;13.50;6.40;;;;;;;;;;5080984;28;20205;-77
2021/12/20 12:38:19;;;;;;;22.77;8.40;;;;;;;;;;5085708;28;20186;-77
2021/12/20 12:40:49;;;;;;;11.98;5.60;;;;;;;;;;5073802;28;20198;-78
2021/12/20 12:43:17;;;;;;;11.52;6.47;;;;;;;;;;5076613;28;20198;-76
2021/12/20 12:45:51;;;;;;;9.70;4.80;;;;;;;;;;5075760;28;20193;-76
2021/12/20 12:48:36;;;;;;;8.18;4.88;;;;;;;;;;5082364;28;20211;-76
2021/12/20 12:51:07;;;;;;;16.60;5.50;;;;;;;;;;5081310;28;20732;-76
2021/12/20 12:53:41;;;;;;;16.00;6.35;;;;;;;;;;5087052;28;20216;-76
2021/12/20 12:56:27;;;;;;;11.05;6.45;;;;;;;;;;5065120;28;20194;-76
2021/12/20 12:59:08;;;;;;;15.95;6.43;;;;;;;;;;5081740;28;20201;-76
2021/12/20 13:01:36;;;;;;;13.75;6.63;;;;;;;;;;5058540;28;20225;-77
2021/12/20 13:04:05;;;;;;;20.48;6.75;;;;;;;;;;5062140;28;20202;-76
2021/12/20 13:06:32;;;;;;;19.33;6.78;;;;;;;;;;5058466;28;20210;-76
2021/12/20 13:09:00;;;;;;;17.23;5.85;;;;;;;;;;5062482;28;20205;-76
2021/12/20 13:11:29;;;;;;;14.60;7.57;;;;;;;;;;5064049;28;20325;-76
2021/12/20 13:14:07;;;;;;;16.42;6.90;;;;;;;;;;5063622;28;20380;-76
2021/12/20 13:16:37;;;;;;;13.25;6.60;;;;;;;;;;5058436;28;20289;-76
2021/12/20 13:19:06;;;;;;;18.50;7.65;;;;;;;;;;5062098;28;20249;-76
2021/12/20 13:21:49;;;;;;;17.35;7.13;;;;;;;;;;5059771;28;20237;-76
2021/12/20 13:24:17;;;;;;;9.70;5.95;;;;;;;;;;5055797;28;20416;-76
2021/12/20 13:26:44;;;;;;;12.93;5.40;;;;;;;;;;5061173;28;20205;-76
2021/12/20 13:29:16;;;;;;;12.82;7.03;;;;;;;;;;5053331;28;20206;-75
2021/12/20 13:31:44;;;;;;;15.90;7.38;;;;;;;;;;5056030;28;20579;-76
2021/12/20 13:34:14;;;;;;;18.30;7.40;;;;;;;;;;5059680;28;20226;-76
2021/12/20 13:36:50;;;;;;;20.55;7.65;;;;;;;;;;5054249;28;20194;-76
2021/12/20 13:39:18;;;;;;;15.10;7.10;;;;;;;;;;5043550;28;20285;-77
2021/12/20 13:41:45;;;;;;;11.63;6.90;;;;;;;;;;5044150;28;20195;-76
2021/12/20 13:44:14;;;;;;;16.65;7.65;;;;;;;;;;5044039;28;20198;-76
2021/12/20 13:46:43;;;;;;;12.95;7.25;;;;;;;;;;5046543;28;20662;-76
2021/12/20 13:49:13;;;;;;;12.65;6.75;;;;;;;;;;5045147;28;20577;-77
2021/12/20 13:51:41;;;;;;;17.30;8.25;;;;;;;;;;5048332;28;20229;-76
2021/12/20 13:54:19;;;;;;;9.85;7.22;;;;;;;;;;5049213;28;20613;-76
2021/12/20 13:56:51;;;;;;;12.70;8.50;;;;;;;;;;5048862;28;20653;-76
2021/12/20 13:59:22;;;;;;;13.23;6.93;;;;;;;;;;5048321;28;20722;-77
2021/12/20 14:01:49;;;;;;;15.55;8.75;;;;;;;;;;5043958;28;20202;-76
2021/12/20 14:04:27;;;;;;;13.77;8.07;;;;;;;;;;5044386;28;20202;-76
2021/12/20 14:06:57;;;;;;;12.82;7.57;;;;;;;;;;5042049;28;20909;-76
2021/12/20 14:09:34;;;;;;;15.10;9.07;;;;;;;;;;5049350;28;20203;-76
2021/12/20 14:12:08;;;;;;;14.85;6.97;;;;;;;;;;5047656;28;20280;-76
2021/12/20 14:14:35;;;;;;;14.13;8.35;;;;;;;;;;5043072;28;20202;-77
2021/12/20 14:17:04;;;;;;;14.60;7.75;;;;;;;;;;5043868;28;20195;-76
2021/12/20 14:19:49;;;;;;;12.63;7.30;;;;;;;;;;5046202;28;20290;-76
2021/12/20 14:22:18;;;;;;;13.27;9.18;;;;;;;;;;5045179;28;20830;-76
2021/12/20 14:24:45;;;;;;;16.70;9.15;;;;;;;;;;5046670;28;20540;-76
2021/12/20 14:27:14;;;;;;;9.63;7.88;;;;;;;;;;5048597;28;20567;-76
2021/12/20 14:29:41;;;;;;;11.20;6.90;;;;;;;;;;5050020;28;20199;-76
2021/12/20 14:32:09;;;;;;;9.77;7.07;;;;;;;;;;5043122;28;20223;-76
2021/12/20 14:34:37;;;;;;;9.02;7.82;;;;;;;;;;5036648;28;20202;-76
2021/12/20 14:37:08;;;;;;;13.52;6.72;;;;;;;;;;5052421;28;20203;-76
2021/12/20 14:39:43;;;;;;;16.40;8.10;;;;;;;;;;5049118;28;20201;-76
2021/12/20 14:42:10;;;;;;;9.57;7.60;;;;;;;;;;5050778;28;20251;-75
2021/12/20 14:44:46;;;;;;;12.25;8.18;;;;;;;;;;5052423;28;20194;-76
2021/12/20 14:47:25;;;;;;;11.18;8.30;;;;;;;;;;5044527;28;20198;-76
2021/12/20 14:49:56;;;;;;;13.27;7.95;;;;;;;;;;5048833;28;20209;-76
2021/12/20 14:52:27;;;;;;;17.50;8.73;;;;;;;;;;5050402;28;20309;-76
2021/12/20 14:54:57;;;;;;;12.27;8.38;;;;;;;;;;5050112;28;20203;-76
2021/12/20 14:57:25;;;;;;;16.38;8.05;;;;;;;;;;5042207;28;20194;-76
2021/12/20 14:59:52;;;;;;;11.48;7.90;;;;;;;;;;5049404;28;20725;-76
2021/12/20 15:02:24;;;;;;;10.60;7.93;;;;;;;;;;5045216;28;20195;-75